sensor_id;sensor_type;location;lat;lon;timestamp;P1;durP1;ratioP1;P2;durP2;ratioP2
10116;SDS011;5098;48.792;9.012;2022-12-10T00:00:36;36.08;;;22.27;;
10116;SDS011;5098;48.792;9.012;2022-12-10T00:03:02;34.72;;;23.75;;
10116;SDS011;5098;48.792;9.012;2022-12-10T00:05:29;36.30;;;24.58;;
10116;SDS011;5098;48.792;9.012;2022-12-10T00:07:55;32.55;;;24.23;;
10116;SDS011;5098;48.792;9.012;2022-12-10T00:10:21;30.48;;;21.25;;
10116;SDS011;5098;48.792;9.012;2022-12-10T00:12:47;32.75;;;22.60;;
10116;SDS011;5098;48.792;9.012;2022-12-10T00:15:13;32.35;;;22.73;;
10116;SDS011;5098;48.792;9.012;2022-12-10T00:17:39;32.03;;;23.00;;
10116;SDS011;5098;48.792;9.012;2022-12-10T00:20:05;37.40;;;24.25;;
10116;SDS011;5098;48.792;9.012;2022-12-10T00:22:31;32.08;;;22.98;;
10116;SDS011;5098;48.792;9.012;2022-12-10T00:24:57;31.98;;;23.35;;
10116;SDS011;5098;48.792;9.012;2022-12-10T00:27:23;32.47;;;23.02;;
10116;SDS011;5098;48.792;9.012;2022-12-10T00:29:49;38.63;;;23.05;;
10116;SDS011;5098;48.792;9.012;2022-12-10T00:32:15;30.15;;;22.77;;
10116;SDS011;5098;48.792;9.012;2022-12-10T00:34:41;35.42;;;24.20;;
10116;SDS011;5098;48.792;9.012;2022-12-10T00:37:07;34.75;;;23.17;;
10116;SDS011;5098;48.792;9.012;2022-12-10T00:39:33;36.05;;;23.95;;
10116;SDS011;5098;48.792;9.012;2022-12-10T00:41:59;29.08;;;22.13;;
10116;SDS011;5098;48.792;9.012;2022-12-10T00:44:25;32.50;;;23.38;;
10116;SDS011;5098;48.792;9.012;2022-12-10T00:46:52;28.10;;;21.50;;
10116;SDS011;5098;48.792;9.012;2022-12-10T00:49:18;28.75;;;22.00;;
10116;SDS011;5098;48.792;9.012;2022-12-10T00:51:47;33.75;;;22.10;;
10116;SDS011;5098;48.792;9.012;2022-12-10T00:54:14;36.63;;;22.83;;
10116;SDS011;5098;48.792;9.012;2022-12-10T00:56:40;33.78;;;23.17;;
10116;SDS011;5098;48.792;9.012;2022-12-10T00:59:06;34.55;;;21.98;;
10116;SDS011;5098;48.792;9.012;2022-12-10T01:01:33;32.50;;;23.75;;
10116;SDS011;5098;48.792;9.012;2022-12-10T01:04:07;32.60;;;23.05;;
10116;SDS011;5098;48.792;9.012;2022-12-10T01:06:35;37.38;;;25.25;;
10116;SDS011;5098;48.792;9.012;2022-12-10T01:09:03;36.75;;;23.88;;
10116;SDS011;5098;48.792;9.012;2022-12-10T01:11:31;37.13;;;26.02;;
10116;SDS011;5098;48.792;9.012;2022-12-10T01:13:57;40.58;;;25.20;;
10116;SDS011;5098;48.792;9.012;2022-12-10T01:16:23;36.95;;;25.13;;
10116;SDS011;5098;48.792;9.012;2022-12-10T01:18:52;32.72;;;23.83;;
10116;SDS011;5098;48.792;9.012;2022-12-10T01:21:18;30.90;;;23.52;;
10116;SDS011;5098;48.792;9.012;2022-12-10T01:23:45;34.35;;;24.85;;
10116;SDS011;5098;48.792;9.012;2022-12-10T01:26:12;32.80;;;23.20;;
10116;SDS011;5098;48.792;9.012;2022-12-10T01:28:39;32.33;;;23.63;;
10116;SDS011;5098;48.792;9.012;2022-12-10T01:31:06;31.17;;;23.80;;
10116;SDS011;5098;48.792;9.012;2022-12-10T01:33:33;36.90;;;25.15;;
10116;SDS011;5098;48.792;9.012;2022-12-10T01:36:04;32.63;;;24.35;;
10116;SDS011;5098;48.792;9.012;2022-12-10T01:38:31;30.83;;;23.38;;
10116;SDS011;5098;48.792;9.012;2022-12-10T01:40:58;33.92;;;24.10;;
10116;SDS011;5098;48.792;9.012;2022-12-10T01:43:24;34.42;;;23.70;;
10116;SDS011;5098;48.792;9.012;2022-12-10T01:45:50;31.85;;;22.50;;
10116;SDS011;5098;48.792;9.012;2022-12-10T01:48:19;35.63;;;23.80;;
10116;SDS011;5098;48.792;9.012;2022-12-10T01:50:45;29.60;;;20.85;;
10116;SDS011;5098;48.792;9.012;2022-12-10T01:53:12;30.90;;;22.33;;
10116;SDS011;5098;48.792;9.012;2022-12-10T01:58:10;30.50;;;21.10;;
10116;SDS011;5098;48.792;9.012;2022-12-10T02:00:38;29.10;;;21.85;;
10116;SDS011;5098;48.792;9.012;2022-12-10T02:03:14;31.48;;;21.65;;
10116;SDS011;5098;48.792;9.012;2022-12-10T02:05:44;31.00;;;21.23;;
10116;SDS011;5098;48.792;9.012;2022-12-10T02:08:23;30.40;;;20.55;;
10116;SDS011;5098;48.792;9.012;2022-12-10T02:13:26;28.08;;;19.95;;
10116;SDS011;5098;48.792;9.012;2022-12-10T02:16:04;29.42;;;20.35;;
10116;SDS011;5098;48.792;9.012;2022-12-10T02:18:34;29.48;;;21.55;;
10116;SDS011;5098;48.792;9.012;2022-12-10T02:21:03;31.38;;;22.33;;
10116;SDS011;5098;48.792;9.012;2022-12-10T02:23:34;32.03;;;21.65;;
10116;SDS011;5098;48.792;9.012;2022-12-10T02:30:53;29.67;;;22.13;;
10116;SDS011;5098;48.792;9.012;2022-12-10T02:33:19;30.75;;;20.70;;
10116;SDS011;5098;48.792;9.012;2022-12-10T02:35:46;28.08;;;22.33;;
10116;SDS011;5098;48.792;9.012;2022-12-10T02:38:17;31.30;;;21.98;;
10116;SDS011;5098;48.792;9.012;2022-12-10T02:40:45;32.58;;;22.63;;
10116;SDS011;5098;48.792;9.012;2022-12-10T02:43:12;35.30;;;22.95;;
10116;SDS011;5098;48.792;9.012;2022-12-10T02:45:39;32.00;;;22.85;;
10116;SDS011;5098;48.792;9.012;2022-12-10T02:48:07;28.90;;;20.23;;
10116;SDS011;5098;48.792;9.012;2022-12-10T02:50:33;34.45;;;22.60;;
10116;SDS011;5098;48.792;9.012;2022-12-10T02:52:59;29.27;;;21.80;;
10116;SDS011;5098;48.792;9.012;2022-12-10T02:55:25;33.63;;;22.65;;
10116;SDS011;5098;48.792;9.012;2022-12-10T03:00:18;33.10;;;23.52;;
10116;SDS011;5098;48.792;9.012;2022-12-10T03:05:22;34.28;;;23.15;;
10116;SDS011;5098;48.792;9.012;2022-12-10T03:10:48;35.55;;;22.60;;
10116;SDS011;5098;48.792;9.012;2022-12-10T03:13:16;38.55;;;24.52;;
10116;SDS011;5098;48.792;9.012;2022-12-10T03:15:43;37.53;;;25.13;;
10116;SDS011;5098;48.792;9.012;2022-12-10T03:18:10;35.10;;;24.80;;
10116;SDS011;5098;48.792;9.012;2022-12-10T03:20:39;35.92;;;24.05;;
10116;SDS011;5098;48.792;9.012;2022-12-10T03:23:07;33.05;;;23.95;;
10116;SDS011;5098;48.792;9.012;2022-12-10T03:25:34;32.65;;;23.10;;
10116;SDS011;5098;48.792;9.012;2022-12-10T03:28:00;32.50;;;22.52;;
10116;SDS011;5098;48.792;9.012;2022-12-10T03:30:26;35.05;;;22.95;;
10116;SDS011;5098;48.792;9.012;2022-12-10T03:32:54;32.50;;;23.65;;
10116;SDS011;5098;48.792;9.012;2022-12-10T03:35:20;34.17;;;23.30;;
10116;SDS011;5098;48.792;9.012;2022-12-10T03:37:47;39.05;;;22.90;;
10116;SDS011;5098;48.792;9.012;2022-12-10T03:40:14;31.70;;;22.13;;
10116;SDS011;5098;48.792;9.012;2022-12-10T03:42:42;33.08;;;21.90;;
10116;SDS011;5098;48.792;9.012;2022-12-10T03:45:09;36.17;;;22.98;;
10116;SDS011;5098;48.792;9.012;2022-12-10T03:47:35;31.80;;;21.95;;
10116;SDS011;5098;48.792;9.012;2022-12-10T03:50:01;33.28;;;22.80;;
10116;SDS011;5098;48.792;9.012;2022-12-10T03:52:28;32.05;;;23.17;;
10116;SDS011;5098;48.792;9.012;2022-12-10T03:54:54;33.38;;;22.88;;
10116;SDS011;5098;48.792;9.012;2022-12-10T03:57:20;30.70;;;23.30;;
10116;SDS011;5098;48.792;9.012;2022-12-10T03:59:46;33.63;;;23.50;;
10116;SDS011;5098;48.792;9.012;2022-12-10T04:02:12;30.83;;;22.95;;
10116;SDS011;5098;48.792;9.012;2022-12-10T04:04:38;29.65;;;22.00;;
10116;SDS011;5098;48.792;9.012;2022-12-10T04:07:04;33.00;;;22.65;;
10116;SDS011;5098;48.792;9.012;2022-12-10T04:09:30;30.42;;;22.33;;
10116;SDS011;5098;48.792;9.012;2022-12-10T04:11:57;35.53;;;23.35;;
10116;SDS011;5098;48.792;9.012;2022-12-10T04:14:23;33.42;;;23.38;;
10116;SDS011;5098;48.792;9.012;2022-12-10T04:17:08;34.70;;;22.73;;
10116;SDS011;5098;48.792;9.012;2022-12-10T04:19:35;31.20;;;21.80;;
10116;SDS011;5098;48.792;9.012;2022-12-10T04:22:01;29.00;;;22.08;;
10116;SDS011;5098;48.792;9.012;2022-12-10T04:24:45;32.30;;;23.23;;
10116;SDS011;5098;48.792;9.012;2022-12-10T04:27:35;31.05;;;21.08;;
10116;SDS011;5098;48.792;9.012;2022-12-10T04:30:02;30.70;;;22.20;;
10116;SDS011;5098;48.792;9.012;2022-12-10T04:32:28;33.35;;;22.95;;
10116;SDS011;5098;48.792;9.012;2022-12-10T04:34:55;34.55;;;24.20;;
10116;SDS011;5098;48.792;9.012;2022-12-10T04:37:21;30.80;;;22.85;;
10116;SDS011;5098;48.792;9.012;2022-12-10T04:39:50;29.83;;;20.48;;
10116;SDS011;5098;48.792;9.012;2022-12-10T04:42:17;31.20;;;22.20;;
10116;SDS011;5098;48.792;9.012;2022-12-10T04:44:43;31.27;;;21.63;;
10116;SDS011;5098;48.792;9.012;2022-12-10T04:47:10;29.70;;;21.52;;
10116;SDS011;5098;48.792;9.012;2022-12-10T04:49:36;34.08;;;22.58;;
10116;SDS011;5098;48.792;9.012;2022-12-10T04:52:03;31.50;;;21.40;;
10116;SDS011;5098;48.792;9.012;2022-12-10T04:54:29;36.30;;;22.95;;
10116;SDS011;5098;48.792;9.012;2022-12-10T04:56:56;30.38;;;21.95;;
10116;SDS011;5098;48.792;9.012;2022-12-10T04:59:22;28.05;;;21.50;;
10116;SDS011;5098;48.792;9.012;2022-12-10T05:01:48;29.40;;;21.65;;
10116;SDS011;5098;48.792;9.012;2022-12-10T05:04:15;29.55;;;22.38;;
10116;SDS011;5098;48.792;9.012;2022-12-10T05:06:41;31.30;;;21.38;;
10116;SDS011;5098;48.792;9.012;2022-12-10T05:09:07;30.83;;;22.23;;
10116;SDS011;5098;48.792;9.012;2022-12-10T05:11:34;31.77;;;21.58;;
10116;SDS011;5098;48.792;9.012;2022-12-10T05:14:00;28.70;;;21.25;;
10116;SDS011;5098;48.792;9.012;2022-12-10T05:16:27;31.85;;;22.77;;
10116;SDS011;5098;48.792;9.012;2022-12-10T05:18:54;29.42;;;22.45;;
10116;SDS011;5098;48.792;9.012;2022-12-10T05:21:21;32.30;;;22.00;;
10116;SDS011;5098;48.792;9.012;2022-12-10T05:23:48;32.60;;;21.23;;
10116;SDS011;5098;48.792;9.012;2022-12-10T05:26:24;34.08;;;20.83;;
10116;SDS011;5098;48.792;9.012;2022-12-10T05:28:54;31.55;;;22.75;;
10116;SDS011;5098;48.792;9.012;2022-12-10T05:31:29;33.15;;;21.77;;
10116;SDS011;5098;48.792;9.012;2022-12-10T05:33:56;30.38;;;21.60;;
10116;SDS011;5098;48.792;9.012;2022-12-10T05:36:26;32.33;;;21.17;;
10116;SDS011;5098;48.792;9.012;2022-12-10T05:38:53;34.50;;;23.70;;
10116;SDS011;5098;48.792;9.012;2022-12-10T05:41:21;35.97;;;22.27;;
10116;SDS011;5098;48.792;9.012;2022-12-10T05:43:47;32.30;;;23.70;;
10116;SDS011;5098;48.792;9.012;2022-12-10T05:46:15;38.38;;;22.42;;
10116;SDS011;5098;48.792;9.012;2022-12-10T05:48:41;33.85;;;22.27;;
10116;SDS011;5098;48.792;9.012;2022-12-10T05:51:10;30.90;;;22.88;;
10116;SDS011;5098;48.792;9.012;2022-12-10T05:53:37;36.40;;;22.73;;
10116;SDS011;5098;48.792;9.012;2022-12-10T05:56:05;32.45;;;23.25;;
10116;SDS011;5098;48.792;9.012;2022-12-10T05:58:32;29.73;;;22.20;;
10116;SDS011;5098;48.792;9.012;2022-12-10T06:00:58;34.53;;;22.08;;
10116;SDS011;5098;48.792;9.012;2022-12-10T06:03:26;32.30;;;22.05;;
10116;SDS011;5098;48.792;9.012;2022-12-10T06:05:53;36.33;;;25.25;;
10116;SDS011;5098;48.792;9.012;2022-12-10T06:08:19;29.38;;;21.48;;
10116;SDS011;5098;48.792;9.012;2022-12-10T06:10:45;30.02;;;21.35;;
10116;SDS011;5098;48.792;9.012;2022-12-10T06:13:11;31.35;;;21.02;;
10116;SDS011;5098;48.792;9.012;2022-12-10T06:15:38;30.30;;;22.30;;
10116;SDS011;5098;48.792;9.012;2022-12-10T06:18:04;30.70;;;22.60;;
10116;SDS011;5098;48.792;9.012;2022-12-10T06:20:30;33.30;;;22.63;;
10116;SDS011;5098;48.792;9.012;2022-12-10T06:22:57;32.85;;;22.23;;
10116;SDS011;5098;48.792;9.012;2022-12-10T06:25:23;32.25;;;22.52;;
10116;SDS011;5098;48.792;9.012;2022-12-10T06:27:49;31.52;;;23.35;;
10116;SDS011;5098;48.792;9.012;2022-12-10T06:30:15;34.55;;;23.85;;
10116;SDS011;5098;48.792;9.012;2022-12-10T06:32:41;32.40;;;25.05;;
10116;SDS011;5098;48.792;9.012;2022-12-10T06:35:08;31.90;;;22.50;;
10116;SDS011;5098;48.792;9.012;2022-12-10T06:37:34;35.92;;;24.60;;
10116;SDS011;5098;48.792;9.012;2022-12-10T06:40:00;34.33;;;23.50;;
10116;SDS011;5098;48.792;9.012;2022-12-10T06:42:26;42.85;;;24.00;;
10116;SDS011;5098;48.792;9.012;2022-12-10T06:44:52;33.03;;;24.15;;
10116;SDS011;5098;48.792;9.012;2022-12-10T06:47:18;31.10;;;22.10;;
10116;SDS011;5098;48.792;9.012;2022-12-10T06:49:44;37.00;;;24.88;;
10116;SDS011;5098;48.792;9.012;2022-12-10T06:52:10;33.72;;;24.35;;
10116;SDS011;5098;48.792;9.012;2022-12-10T06:54:36;37.65;;;24.67;;
10116;SDS011;5098;48.792;9.012;2022-12-10T06:57:02;34.55;;;23.35;;
10116;SDS011;5098;48.792;9.012;2022-12-10T06:59:28;34.75;;;24.15;;
10116;SDS011;5098;48.792;9.012;2022-12-10T07:01:54;34.50;;;24.42;;
10116;SDS011;5098;48.792;9.012;2022-12-10T07:04:20;32.10;;;21.98;;
10116;SDS011;5098;48.792;9.012;2022-12-10T07:06:47;38.42;;;24.55;;
10116;SDS011;5098;48.792;9.012;2022-12-10T07:09:13;35.05;;;23.85;;
10116;SDS011;5098;48.792;9.012;2022-12-10T07:11:39;29.92;;;20.67;;
10116;SDS011;5098;48.792;9.012;2022-12-10T07:14:05;35.80;;;24.83;;
10116;SDS011;5098;48.792;9.012;2022-12-10T07:16:32;35.45;;;24.30;;
10116;SDS011;5098;48.792;9.012;2022-12-10T07:19:00;33.95;;;23.25;;
10116;SDS011;5098;48.792;9.012;2022-12-10T07:21:27;33.72;;;24.08;;
10116;SDS011;5098;48.792;9.012;2022-12-10T07:23:54;36.75;;;23.70;;
10116;SDS011;5098;48.792;9.012;2022-12-10T07:26:23;37.35;;;24.77;;
10116;SDS011;5098;48.792;9.012;2022-12-10T07:28:49;36.25;;;25.25;;
10116;SDS011;5098;48.792;9.012;2022-12-10T07:31:15;34.20;;;23.92;;
10116;SDS011;5098;48.792;9.012;2022-12-10T07:33:41;37.10;;;25.65;;
10116;SDS011;5098;48.792;9.012;2022-12-10T07:36:08;34.97;;;23.65;;
10116;SDS011;5098;48.792;9.012;2022-12-10T07:38:35;37.92;;;24.55;;
10116;SDS011;5098;48.792;9.012;2022-12-10T07:41:03;34.28;;;25.27;;
10116;SDS011;5098;48.792;9.012;2022-12-10T07:43:29;31.23;;;21.80;;
10116;SDS011;5098;48.792;9.012;2022-12-10T07:45:55;32.85;;;24.13;;
10116;SDS011;5098;48.792;9.012;2022-12-10T07:48:21;36.17;;;24.38;;
10116;SDS011;5098;48.792;9.012;2022-12-10T07:50:48;37.65;;;24.67;;
10116;SDS011;5098;48.792;9.012;2022-12-10T07:53:20;40.30;;;22.98;;
10116;SDS011;5098;48.792;9.012;2022-12-10T07:55:46;34.50;;;23.90;;
10116;SDS011;5098;48.792;9.012;2022-12-10T07:58:12;33.20;;;23.30;;
10116;SDS011;5098;48.792;9.012;2022-12-10T08:00:38;32.13;;;24.13;;
10116;SDS011;5098;48.792;9.012;2022-12-10T08:03:05;37.00;;;24.50;;
10116;SDS011;5098;48.792;9.012;2022-12-10T08:05:31;40.13;;;26.15;;
10116;SDS011;5098;48.792;9.012;2022-12-10T08:07:57;38.28;;;25.70;;
10116;SDS011;5098;48.792;9.012;2022-12-10T08:10:23;33.92;;;24.15;;
10116;SDS011;5098;48.792;9.012;2022-12-10T08:12:49;35.17;;;23.08;;
10116;SDS011;5098;48.792;9.012;2022-12-10T08:15:15;33.63;;;21.77;;
10116;SDS011;5098;48.792;9.012;2022-12-10T08:17:41;31.60;;;23.45;;
10116;SDS011;5098;48.792;9.012;2022-12-10T08:20:07;30.42;;;22.90;;
10116;SDS011;5098;48.792;9.012;2022-12-10T08:22:36;33.95;;;23.20;;
10116;SDS011;5098;48.792;9.012;2022-12-10T08:25:03;31.45;;;22.77;;
10116;SDS011;5098;48.792;9.012;2022-12-10T08:27:29;31.98;;;22.38;;
10116;SDS011;5098;48.792;9.012;2022-12-10T08:29:55;31.42;;;21.55;;
10116;SDS011;5098;48.792;9.012;2022-12-10T08:32:22;29.45;;;22.83;;
10116;SDS011;5098;48.792;9.012;2022-12-10T08:34:48;29.83;;;22.00;;
10116;SDS011;5098;48.792;9.012;2022-12-10T08:37:14;25.73;;;16.40;;
10116;SDS011;5098;48.792;9.012;2022-12-10T08:39:40;30.52;;;20.88;;
10116;SDS011;5098;48.792;9.012;2022-12-10T08:42:06;24.80;;;16.60;;
10116;SDS011;5098;48.792;9.012;2022-12-10T08:44:33;30.38;;;20.48;;
10116;SDS011;5098;48.792;9.012;2022-12-10T08:46:59;31.90;;;22.75;;
10116;SDS011;5098;48.792;9.012;2022-12-10T08:49:25;28.85;;;21.45;;
10116;SDS011;5098;48.792;9.012;2022-12-10T08:51:51;28.40;;;21.33;;
10116;SDS011;5098;48.792;9.012;2022-12-10T08:54:17;32.08;;;22.40;;
10116;SDS011;5098;48.792;9.012;2022-12-10T08:56:43;31.73;;;21.33;;
10116;SDS011;5098;48.792;9.012;2022-12-10T08:59:09;30.15;;;21.35;;
10116;SDS011;5098;48.792;9.012;2022-12-10T09:01:35;32.10;;;22.48;;
10116;SDS011;5098;48.792;9.012;2022-12-10T09:04:01;26.88;;;20.70;;
10116;SDS011;5098;48.792;9.012;2022-12-10T09:06:27;27.40;;;19.63;;
10116;SDS011;5098;48.792;9.012;2022-12-10T09:08:54;29.50;;;20.52;;
10116;SDS011;5098;48.792;9.012;2022-12-10T09:11:21;32.83;;;21.60;;
10116;SDS011;5098;48.792;9.012;2022-12-10T09:13:48;30.60;;;20.83;;
10116;SDS011;5098;48.792;9.012;2022-12-10T09:16:14;31.17;;;22.35;;
10116;SDS011;5098;48.792;9.012;2022-12-10T09:18:40;32.75;;;22.05;;
10116;SDS011;5098;48.792;9.012;2022-12-10T09:21:07;32.00;;;21.73;;
10116;SDS011;5098;48.792;9.012;2022-12-10T09:23:33;34.17;;;22.65;;
10116;SDS011;5098;48.792;9.012;2022-12-10T09:26:00;28.88;;;22.40;;
10116;SDS011;5098;48.792;9.012;2022-12-10T09:28:26;28.63;;;19.77;;
10116;SDS011;5098;48.792;9.012;2022-12-10T09:30:58;30.25;;;23.25;;
10116;SDS011;5098;48.792;9.012;2022-12-10T09:33:25;31.33;;;21.65;;
10116;SDS011;5098;48.792;9.012;2022-12-10T09:35:51;30.30;;;21.25;;
10116;SDS011;5098;48.792;9.012;2022-12-10T09:38:17;29.85;;;19.80;;
10116;SDS011;5098;48.792;9.012;2022-12-10T09:40:45;31.38;;;21.05;;
10116;SDS011;5098;48.792;9.012;2022-12-10T09:43:23;27.88;;;20.48;;
10116;SDS011;5098;48.792;9.012;2022-12-10T09:45:58;25.77;;;18.60;;
10116;SDS011;5098;48.792;9.012;2022-12-10T09:48:34;26.75;;;19.10;;
10116;SDS011;5098;48.792;9.012;2022-12-10T09:51:12;28.15;;;19.33;;
10116;SDS011;5098;48.792;9.012;2022-12-10T09:53:40;30.65;;;21.00;;
10116;SDS011;5098;48.792;9.012;2022-12-10T09:56:10;31.33;;;21.80;;
10116;SDS011;5098;48.792;9.012;2022-12-10T09:58:43;29.50;;;19.38;;
10116;SDS011;5098;48.792;9.012;2022-12-10T10:01:10;30.48;;;21.92;;
10116;SDS011;5098;48.792;9.012;2022-12-10T10:03:38;27.02;;;18.80;;
10116;SDS011;5098;48.792;9.012;2022-12-10T10:06:06;28.17;;;20.00;;
10116;SDS011;5098;48.792;9.012;2022-12-10T10:10:59;27.70;;;19.70;;
10116;SDS011;5098;48.792;9.012;2022-12-10T10:15:51;33.28;;;21.23;;
10116;SDS011;5098;48.792;9.012;2022-12-10T10:18:30;26.95;;;19.85;;
10116;SDS011;5098;48.792;9.012;2022-12-10T10:20:57;26.15;;;20.30;;
10116;SDS011;5098;48.792;9.012;2022-12-10T10:23:24;24.48;;;19.25;;
10116;SDS011;5098;48.792;9.012;2022-12-10T10:25:50;29.10;;;19.52;;
10116;SDS011;5098;48.792;9.012;2022-12-10T10:28:18;23.65;;;19.52;;
10116;SDS011;5098;48.792;9.012;2022-12-10T10:30:45;33.13;;;22.23;;
10116;SDS011;5098;48.792;9.012;2022-12-10T10:33:12;25.08;;;18.83;;
10116;SDS011;5098;48.792;9.012;2022-12-10T10:35:43;27.17;;;18.65;;
10116;SDS011;5098;48.792;9.012;2022-12-10T10:38:20;24.42;;;19.25;;
10116;SDS011;5098;48.792;9.012;2022-12-10T10:40:52;26.33;;;18.85;;
10116;SDS011;5098;48.792;9.012;2022-12-10T10:43:31;27.58;;;19.63;;
10116;SDS011;5098;48.792;9.012;2022-12-10T10:45:58;24.88;;;18.90;;
10116;SDS011;5098;48.792;9.012;2022-12-10T10:48:26;28.33;;;19.77;;
10116;SDS011;5098;48.792;9.012;2022-12-10T10:55:59;27.02;;;20.15;;
10116;SDS011;5098;48.792;9.012;2022-12-10T10:58:27;26.70;;;20.20;;
10116;SDS011;5098;48.792;9.012;2022-12-10T11:00:56;27.80;;;21.27;;
10116;SDS011;5098;48.792;9.012;2022-12-10T11:03:23;25.92;;;19.55;;
10116;SDS011;5098;48.792;9.012;2022-12-10T11:05:50;27.55;;;19.00;;
10116;SDS011;5098;48.792;9.012;2022-12-10T11:08:16;27.80;;;21.02;;
10116;SDS011;5098;48.792;9.012;2022-12-10T11:10:47;28.90;;;20.40;;
10116;SDS011;5098;48.792;9.012;2022-12-10T11:13:27;26.80;;;19.60;;
10116;SDS011;5098;48.792;9.012;2022-12-10T11:15:56;24.52;;;18.75;;
10116;SDS011;5098;48.792;9.012;2022-12-10T11:18:24;23.92;;;18.67;;
10116;SDS011;5098;48.792;9.012;2022-12-10T11:21:02;23.38;;;17.20;;
10116;SDS011;5098;48.792;9.012;2022-12-10T11:23:36;39.55;;;27.38;;
10116;SDS011;5098;48.792;9.012;2022-12-10T11:26:09;27.77;;;19.73;;
10116;SDS011;5098;48.792;9.012;2022-12-10T11:34:09;25.60;;;17.90;;
10116;SDS011;5098;48.792;9.012;2022-12-10T11:42:23;20.67;;;15.70;;
10116;SDS011;5098;48.792;9.012;2022-12-10T11:45:02;24.25;;;18.42;;
10116;SDS011;5098;48.792;9.012;2022-12-10T11:47:44;24.90;;;12.93;;
10116;SDS011;5098;48.792;9.012;2022-12-10T11:50:14;20.63;;;15.45;;
10116;SDS011;5098;48.792;9.012;2022-12-10T11:52:50;23.88;;;17.85;;
10116;SDS011;5098;48.792;9.012;2022-12-10T12:00:23;22.85;;;17.85;;
10116;SDS011;5098;48.792;9.012;2022-12-10T12:13:00;23.67;;;18.55;;
10116;SDS011;5098;48.792;9.012;2022-12-10T12:15:29;21.80;;;17.40;;
10116;SDS011;5098;48.792;9.012;2022-12-10T12:18:08;20.40;;;17.05;;
10116;SDS011;5098;48.792;9.012;2022-12-10T12:20:38;22.10;;;17.77;;
10116;SDS011;5098;48.792;9.012;2022-12-10T12:23:16;24.30;;;17.83;;
10116;SDS011;5098;48.792;9.012;2022-12-10T12:25:47;20.60;;;17.98;;
10116;SDS011;5098;48.792;9.012;2022-12-10T12:28:21;24.60;;;17.48;;
10116;SDS011;5098;48.792;9.012;2022-12-10T12:30:49;22.15;;;17.80;;
10116;SDS011;5098;48.792;9.012;2022-12-10T12:36:14;24.38;;;16.63;;
10116;SDS011;5098;48.792;9.012;2022-12-10T12:46:55;24.15;;;19.52;;
10116;SDS011;5098;48.792;9.012;2022-12-10T12:54:19;23.08;;;16.63;;
10116;SDS011;5098;48.792;9.012;2022-12-10T12:56:57;25.45;;;18.30;;
10116;SDS011;5098;48.792;9.012;2022-12-10T13:05:08;22.63;;;17.10;;
10116;SDS011;5098;48.792;9.012;2022-12-10T13:07:38;24.85;;;17.58;;
10116;SDS011;5098;48.792;9.012;2022-12-10T13:15:18;22.88;;;16.20;;
10116;SDS011;5098;48.792;9.012;2022-12-10T13:18:02;23.90;;;18.42;;
10116;SDS011;5098;48.792;9.012;2022-12-10T13:20:29;26.52;;;18.85;;
10116;SDS011;5098;48.792;9.012;2022-12-10T13:23:00;21.33;;;16.02;;
10116;SDS011;5098;48.792;9.012;2022-12-10T13:25:40;22.77;;;17.55;;
10116;SDS011;5098;48.792;9.012;2022-12-10T13:28:16;23.98;;;17.73;;
10116;SDS011;5098;48.792;9.012;2022-12-10T13:30:42;23.17;;;18.08;;
10116;SDS011;5098;48.792;9.012;2022-12-10T13:33:19;23.27;;;16.85;;
10116;SDS011;5098;48.792;9.012;2022-12-10T13:35:56;26.08;;;17.20;;
10116;SDS011;5098;48.792;9.012;2022-12-10T13:38:24;21.98;;;16.88;;
10116;SDS011;5098;48.792;9.012;2022-12-10T13:40:58;24.05;;;17.55;;
10116;SDS011;5098;48.792;9.012;2022-12-10T13:43:43;24.95;;;15.68;;
10116;SDS011;5098;48.792;9.012;2022-12-10T13:46:52;23.48;;;16.85;;
10116;SDS011;5098;48.792;9.012;2022-12-10T13:49:19;20.42;;;14.88;;
10116;SDS011;5098;48.792;9.012;2022-12-10T13:52:04;21.85;;;16.42;;
10116;SDS011;5098;48.792;9.012;2022-12-10T13:54:39;25.75;;;17.13;;
10116;SDS011;5098;48.792;9.012;2022-12-10T14:07:01;22.20;;;16.20;;
10116;SDS011;5098;48.792;9.012;2022-12-10T14:09:29;25.67;;;17.15;;
10116;SDS011;5098;48.792;9.012;2022-12-10T14:12:01;20.20;;;15.15;;
10116;SDS011;5098;48.792;9.012;2022-12-10T14:14:39;22.88;;;15.75;;
10116;SDS011;5098;48.792;9.012;2022-12-10T14:17:06;20.58;;;14.98;;
10116;SDS011;5098;48.792;9.012;2022-12-10T14:19:33;76.25;;;45.75;;
10116;SDS011;5098;48.792;9.012;2022-12-10T14:22:04;71.03;;;44.55;;
10116;SDS011;5098;48.792;9.012;2022-12-10T14:27:13;61.45;;;37.42;;
10116;SDS011;5098;48.792;9.012;2022-12-10T14:29:43;19.20;;;14.07;;
10116;SDS011;5098;48.792;9.012;2022-12-10T14:32:16;23.45;;;15.82;;
10116;SDS011;5098;48.792;9.012;2022-12-10T14:34:52;21.88;;;17.63;;
10116;SDS011;5098;48.792;9.012;2022-12-10T14:37:19;24.30;;;17.73;;
10116;SDS011;5098;48.792;9.012;2022-12-10T14:39:46;22.60;;;17.20;;
10116;SDS011;5098;48.792;9.012;2022-12-10T14:42:13;22.23;;;16.38;;
10116;SDS011;5098;48.792;9.012;2022-12-10T14:44:40;22.13;;;16.83;;
10116;SDS011;5098;48.792;9.012;2022-12-10T14:47:12;21.52;;;15.40;;
10116;SDS011;5098;48.792;9.012;2022-12-10T14:49:40;23.85;;;15.75;;
10116;SDS011;5098;48.792;9.012;2022-12-10T14:52:09;23.60;;;15.32;;
10116;SDS011;5098;48.792;9.012;2022-12-10T14:54:36;23.00;;;15.40;;
10116;SDS011;5098;48.792;9.012;2022-12-10T14:57:03;25.60;;;16.70;;
10116;SDS011;5098;48.792;9.012;2022-12-10T14:59:38;23.85;;;16.67;;
10116;SDS011;5098;48.792;9.012;2022-12-10T15:05:02;26.23;;;18.52;;
10116;SDS011;5098;48.792;9.012;2022-12-10T15:07:32;27.95;;;18.42;;
10116;SDS011;5098;48.792;9.012;2022-12-10T15:10:06;22.95;;;16.08;;
10116;SDS011;5098;48.792;9.012;2022-12-10T15:15:28;22.52;;;16.33;;
10116;SDS011;5098;48.792;9.012;2022-12-10T15:18:09;25.40;;;18.35;;
10116;SDS011;5098;48.792;9.012;2022-12-10T15:20:44;27.23;;;17.20;;
10116;SDS011;5098;48.792;9.012;2022-12-10T15:25:45;22.58;;;15.80;;
10116;SDS011;5098;48.792;9.012;2022-12-10T15:30:50;25.45;;;17.63;;
10116;SDS011;5098;48.792;9.012;2022-12-10T15:33:29;24.42;;;17.48;;
10116;SDS011;5098;48.792;9.012;2022-12-10T15:35:57;21.65;;;16.35;;
10116;SDS011;5098;48.792;9.012;2022-12-10T15:38:24;22.98;;;17.15;;
10116;SDS011;5098;48.792;9.012;2022-12-10T15:40:51;26.63;;;18.60;;
10116;SDS011;5098;48.792;9.012;2022-12-10T15:43:24;23.88;;;16.80;;
10116;SDS011;5098;48.792;9.012;2022-12-10T15:45:50;23.85;;;16.70;;
10116;SDS011;5098;48.792;9.012;2022-12-10T15:48:20;24.02;;;16.77;;
10116;SDS011;5098;48.792;9.012;2022-12-10T15:50:47;26.55;;;18.05;;
10116;SDS011;5098;48.792;9.012;2022-12-10T15:53:14;22.67;;;16.30;;
10116;SDS011;5098;48.792;9.012;2022-12-10T15:55:42;22.30;;;16.42;;
10116;SDS011;5098;48.792;9.012;2022-12-10T15:58:11;20.90;;;15.07;;
10116;SDS011;5098;48.792;9.012;2022-12-10T16:00:38;25.40;;;17.00;;
10116;SDS011;5098;48.792;9.012;2022-12-10T16:03:09;22.58;;;15.35;;
10116;SDS011;5098;48.792;9.012;2022-12-10T16:05:36;19.92;;;15.23;;
10116;SDS011;5098;48.792;9.012;2022-12-10T16:10:33;26.10;;;16.77;;
10116;SDS011;5098;48.792;9.012;2022-12-10T16:13:03;25.73;;;17.80;;
10116;SDS011;5098;48.792;9.012;2022-12-10T16:15:30;23.63;;;17.20;;
10116;SDS011;5098;48.792;9.012;2022-12-10T16:18:00;20.60;;;15.60;;
10116;SDS011;5098;48.792;9.012;2022-12-10T16:20:27;20.70;;;16.00;;
10116;SDS011;5098;48.792;9.012;2022-12-10T16:22:54;24.20;;;16.50;;
10116;SDS011;5098;48.792;9.012;2022-12-10T16:25:21;38.08;;;23.73;;
10116;SDS011;5098;48.792;9.012;2022-12-10T16:27:48;33.17;;;20.50;;